createdAt,value
2022-08-28T00:02:33.956Z,18.47
2022-08-28T00:07:36.625Z,18.45
2022-08-28T00:12:40.393Z,18.43
2022-08-28T00:17:43.485Z,18.40
2022-08-28T00:22:46.982Z,18.40
2022-08-28T00:27:55.144Z,18.41
2022-08-28T00:33:06.467Z,18.42
2022-08-28T00:38:09.801Z,18.41
2022-08-28T00:43:25.961Z,18.39
2022-08-28T00:48:28.771Z,18.35
2022-08-28T00:53:32.952Z,18.32
2022-08-28T00:58:36.251Z,18.32
2022-08-28T01:03:39.679Z,18.29
2022-08-28T01:08:45.674Z,18.25
2022-08-28T01:13:54.659Z,18.22
2022-08-28T01:18:58.150Z,18.15
2022-08-28T01:24:08.132Z,18.09
2022-08-28T01:29:12.014Z,18.04
2022-08-28T01:34:15.072Z,18.02
2022-08-28T01:39:20.360Z,18.00
2022-08-28T01:44:25.862Z,17.96
2022-08-28T01:49:29.537Z,17.85
2022-08-28T01:54:32.154Z,17.65
2022-08-28T01:59:34.850Z,17.47
2022-08-28T02:04:38.828Z,17.40
2022-08-28T02:09:41.468Z,17.41
2022-08-28T02:14:44.141Z,17.39
2022-08-28T02:19:46.775Z,17.43
2022-08-28T02:24:49.497Z,17.51
2022-08-28T02:29:53.320Z,17.65
2022-08-28T02:34:56.698Z,17.76
2022-08-28T02:39:59.962Z,17.86
2022-08-28T02:45:02.955Z,17.92
2022-08-28T02:50:07.562Z,17.88
2022-08-28T02:55:11.578Z,17.80
2022-08-28T03:00:16.418Z,17.75
2022-08-28T03:05:21.162Z,17.69
2022-08-28T03:10:24.114Z,17.64
2022-08-28T03:15:26.813Z,17.58
2022-08-28T03:20:29.411Z,17.49
2022-08-28T03:25:32.069Z,17.45
2022-08-28T03:30:34.761Z,17.40
2022-08-28T03:35:37.895Z,17.32
2022-08-28T03:40:42.690Z,17.25
2022-08-28T03:46:03.759Z,17.19
2022-08-28T03:51:08.135Z,17.17
2022-08-28T03:56:12.546Z,17.15
2022-08-28T04:01:15.185Z,17.17
2022-08-28T04:06:18.464Z,17.22
2022-08-28T04:11:21.055Z,17.30
2022-08-28T04:16:24.694Z,17.39
2022-08-28T04:21:28.532Z,17.51
2022-08-28T04:26:36.530Z,17.61
2022-08-28T04:31:40.163Z,17.70
2022-08-28T04:36:43.311Z,17.81
2022-08-28T04:41:46.407Z,17.96
2022-08-28T04:46:48.984Z,18.14
2022-08-28T04:51:52.232Z,18.35
2022-08-28T04:56:54.931Z,18.56
2022-08-28T05:01:57.564Z,18.80
2022-08-28T05:07:00.192Z,19.28
2022-08-28T05:12:04.157Z,19.94
2022-08-28T05:17:06.859Z,20.56
2022-08-28T05:22:10.488Z,21.22
2022-08-28T05:27:13.137Z,21.84
2022-08-28T05:32:16.080Z,22.41
2022-08-28T05:37:19.783Z,22.97
2022-08-28T05:42:22.533Z,23.57
2022-08-28T05:47:25.333Z,24.25
2022-08-28T05:52:28.845Z,24.92
2022-08-28T05:57:31.521Z,25.68
2022-08-28T06:02:36.784Z,26.39
2022-08-28T06:07:39.976Z,27.06
2022-08-28T06:12:42.573Z,27.74
2022-08-28T06:17:45.430Z,28.43
2022-08-28T06:22:50.120Z,28.90
2022-08-28T06:27:52.713Z,29.24
2022-08-28T06:32:55.333Z,29.74
2022-08-28T06:37:59.020Z,30.46
2022-08-28T06:43:02.015Z,31.23
2022-08-28T06:48:04.710Z,31.92
2022-08-28T06:53:09.290Z,32.73
2022-08-28T06:58:13.046Z,33.34
2022-08-28T07:03:15.902Z,34.34
2022-08-28T07:08:20.482Z,35.38
2022-08-28T07:13:23.384Z,36.50
2022-08-28T07:18:26.048Z,37.53
2022-08-28T07:23:29.434Z,38.45
2022-08-28T07:28:32.355Z,39.04
2022-08-28T07:33:35.175Z,39.54
2022-08-28T07:38:38.421Z,40.19
2022-08-28T07:44:00.013Z,40.79
2022-08-28T07:49:02.745Z,41.66
2022-08-28T07:54:06.176Z,42.32
2022-08-28T07:59:11.752Z,42.70
2022-08-28T08:04:17.567Z,42.98
2022-08-28T08:09:20.580Z,43.19
2022-08-28T08:14:25.252Z,42.90
2022-08-28T08:19:27.913Z,43.17
2022-08-28T08:24:30.536Z,43.85
2022-08-28T08:29:35.906Z,44.70
2022-08-28T08:34:41.304Z,45.08
2022-08-28T08:39:43.986Z,45.07
2022-08-28T08:44:47.763Z,45.42
2022-08-28T08:50:10.594Z,46.07
2022-08-28T08:55:27.447Z,46.28
2022-08-28T09:00:37.715Z,46.62
2022-08-28T09:05:50.168Z,47.49
2022-08-28T09:11:01.056Z,48.34
2022-08-28T09:16:05.156Z,48.22
2022-08-28T09:21:07.878Z,48.01
2022-08-28T09:26:21.387Z,48.47
2022-08-28T09:31:32.329Z,49.13
2022-08-28T09:36:36.857Z,49.79
2022-08-28T09:42:01.226Z,50.08
2022-08-28T09:47:03.829Z,50.48
2022-08-28T09:52:23.046Z,50.57
2022-08-28T09:57:27.968Z,50.03
2022-08-28T10:02:41.391Z,49.97
2022-08-28T10:07:47.269Z,50.38
2022-08-28T10:12:50.506Z,50.91
2022-08-28T10:18:09.121Z,50.51
2022-08-28T10:23:24.905Z,50.03
2022-08-28T10:28:33.731Z,50.74
2022-08-28T10:33:54.798Z,51.69
2022-08-28T10:39:03.445Z,52.32
2022-08-28T10:44:07.787Z,52.97
2022-08-28T10:49:22.330Z,53.13
2022-08-28T10:54:30.509Z,52.98
2022-08-28T10:59:41.831Z,52.82
2022-08-28T11:04:47.140Z,52.79
2022-08-28T11:09:50.215Z,52.83
2022-08-28T11:14:52.773Z,52.63
2022-08-28T11:20:01.489Z,52.98
2022-08-28T11:25:33.938Z,52.98
2022-08-28T11:30:38.828Z,52.30
2022-08-28T11:35:43.754Z,52.09
2022-08-28T11:40:51.134Z,52.31
2022-08-28T11:45:55.138Z,52.58
2022-08-28T11:51:02.391Z,52.91
2022-08-28T11:56:16.044Z,52.00
2022-08-28T12:01:37.675Z,51.25
2022-08-28T12:06:40.735Z,51.53
2022-08-28T12:11:43.692Z,51.97
2022-08-28T12:16:58.604Z,51.28
2022-08-28T12:22:09.971Z,50.35
2022-08-28T12:27:13.825Z,50.06
2022-08-28T12:32:35.209Z,49.32
2022-08-28T12:38:09.373Z,48.62
2022-08-28T12:43:15.377Z,48.26
2022-08-28T12:48:25.148Z,45.87
2022-08-28T12:53:27.889Z,43.64
2022-08-28T12:58:34.115Z,42.31
2022-08-28T13:03:48.029Z,42.50
2022-08-28T13:08:53.922Z,40.91
2022-08-28T13:13:56.736Z,39.78
2022-08-28T13:19:05.577Z,39.37
2022-08-28T13:24:27.565Z,38.62
2022-08-28T13:29:31.069Z,37.95
2022-08-28T13:34:34.964Z,38.35
2022-08-28T13:39:37.921Z,40.25
2022-08-28T13:44:53.330Z,40.05
2022-08-28T13:49:56.018Z,38.91
2022-08-28T13:54:58.806Z,38.31
2022-08-28T14:00:02.342Z,37.88
2022-08-28T14:05:05.953Z,37.27
2022-08-28T14:10:12.164Z,36.72
2022-08-28T14:15:16.461Z,36.29
2022-08-28T14:20:19.977Z,36.62
2022-08-28T14:25:22.619Z,36.82
2022-08-28T14:30:26.345Z,36.75
2022-08-28T14:35:28.918Z,36.29
2022-08-28T14:40:31.683Z,35.85
2022-08-28T14:45:41.293Z,35.43
2022-08-28T14:50:48.224Z,35.23
2022-08-28T14:55:50.906Z,35.05
2022-08-28T15:00:53.555Z,35.10
2022-08-28T15:06:00.176Z,35.63
2022-08-28T15:11:18.415Z,35.87
2022-08-28T15:16:29.894Z,36.13
2022-08-28T15:21:34.926Z,36.33
2022-08-28T15:26:40.171Z,36.44
2022-08-28T15:31:45.596Z,36.34
2022-08-28T15:36:55.301Z,36.05
2022-08-28T15:41:59.645Z,35.59
2022-08-28T15:47:03.215Z,34.99
2022-08-28T15:52:06.729Z,34.34
2022-08-28T15:57:10.083Z,33.93
2022-08-28T16:02:12.819Z,33.32
2022-08-28T16:07:15.841Z,32.59
2022-08-28T16:12:18.468Z,31.55
2022-08-28T16:17:21.510Z,30.51
2022-08-28T16:22:24.524Z,29.52
2022-08-28T16:27:27.296Z,28.81
2022-08-28T16:32:31.455Z,28.26
2022-08-28T16:37:39.717Z,27.63
2022-08-28T16:42:51.463Z,27.00
2022-08-28T16:47:54.861Z,26.50
2022-08-28T16:53:02.456Z,26.05
2022-08-28T16:58:07.628Z,25.62
2022-08-28T17:03:10.975Z,25.22
2022-08-28T17:08:13.893Z,24.86
2022-08-28T17:13:16.795Z,24.54
2022-08-28T17:18:19.392Z,24.24
2022-08-28T17:23:22.019Z,23.99
2022-08-28T17:28:24.688Z,23.73
2022-08-28T17:33:27.666Z,23.50
2022-08-28T17:38:30.364Z,23.32
2022-08-28T17:43:33.373Z,23.16
2022-08-28T17:48:37.093Z,23.01
2022-08-28T17:53:40.213Z,22.88
2022-08-28T17:58:42.842Z,22.77
2022-08-28T18:03:53.468Z,22.65
2022-08-28T18:08:56.622Z,22.56
2022-08-28T18:14:02.344Z,22.49
2022-08-28T18:19:06.537Z,22.45
2022-08-28T18:24:13.008Z,22.40
2022-08-28T18:29:15.821Z,22.32
2022-08-28T18:34:18.514Z,22.27
2022-08-28T18:39:29.535Z,22.25
2022-08-28T18:44:32.876Z,22.25
2022-08-28T18:49:35.469Z,22.27
2022-08-28T18:54:38.533Z,22.31
2022-08-28T18:59:41.131Z,22.34
2022-08-28T19:04:44.852Z,22.33
2022-08-28T19:09:47.481Z,22.32
2022-08-28T19:14:53.284Z,22.34
2022-08-28T19:19:55.930Z,22.38
2022-08-28T19:24:58.889Z,22.42
2022-08-28T19:30:04.216Z,22.45
2022-08-28T19:35:07.454Z,22.46
2022-08-28T19:40:10.877Z,22.43
2022-08-28T19:45:14.954Z,22.40
2022-08-28T19:50:18.366Z,22.38
2022-08-28T19:55:25.859Z,22.38
2022-08-28T20:00:33.146Z,22.39
2022-08-28T20:05:38.190Z,22.37
2022-08-28T20:10:42.566Z,22.37
2022-08-28T20:15:46.808Z,22.38
2022-08-28T20:20:51.401Z,22.40
2022-08-28T20:25:54.594Z,22.44
2022-08-28T20:30:57.463Z,22.46
2022-08-28T20:36:04.725Z,22.48
2022-08-28T20:41:09.633Z,22.48
2022-08-28T20:46:13.885Z,22.46
2022-08-28T20:51:16.694Z,22.42
2022-08-28T20:56:19.512Z,22.44
2022-08-28T21:01:22.751Z,22.47
2022-08-28T21:06:25.443Z,22.48
2022-08-28T21:11:29.540Z,22.44
2022-08-28T21:16:34.169Z,22.37
2022-08-28T21:21:37.600Z,22.30
2022-08-28T21:26:50.671Z,22.20
2022-08-28T21:31:54.640Z,22.13
2022-08-28T21:36:58.008Z,22.03
2022-08-28T21:42:00.738Z,21.84
2022-08-28T21:47:03.489Z,21.66
2022-08-28T21:52:06.368Z,21.51
2022-08-28T21:57:08.962Z,21.37
2022-08-28T22:02:11.617Z,21.20
2022-08-28T22:07:14.356Z,21.01
2022-08-28T22:12:16.979Z,20.86
2022-08-28T22:17:19.569Z,20.67
2022-08-28T22:22:41.749Z,20.52
2022-08-28T22:27:44.523Z,20.45
2022-08-28T22:32:47.178Z,20.39
2022-08-28T22:37:49.878Z,20.33
2022-08-28T22:42:52.834Z,20.24
2022-08-28T22:47:55.449Z,20.15
2022-08-28T22:52:58.111Z,20.06
2022-08-28T22:58:01.006Z,19.99
2022-08-28T23:03:04.329Z,19.94
2022-08-28T23:08:06.988Z,19.90
2022-08-28T23:13:09.640Z,19.88
2022-08-28T23:18:17.072Z,19.85
2022-08-28T23:23:20.261Z,19.84
2022-08-28T23:28:23.505Z,19.83
2022-08-28T23:33:26.101Z,19.81
2022-08-28T23:38:28.674Z,19.76
2022-08-28T23:43:31.578Z,19.70
2022-08-28T23:48:35.684Z,19.68
2022-08-28T23:53:38.877Z,19.69
2022-08-28T23:58:43.270Z,19.70
